createdAt,value
2023-02-02T00:01:55.621Z,78.83
2023-02-02T00:04:46.144Z,78.86
2023-02-02T00:07:38.314Z,78.89
2023-02-02T00:10:30.580Z,78.97
2023-02-02T00:13:22.857Z,78.84
2023-02-02T00:16:41.818Z,78.98
2023-02-02T00:19:34.491Z,79.04
2023-02-02T00:22:26.636Z,79.27
2023-02-02T00:25:19.225Z,79.32
2023-02-02T00:28:11.406Z,79.08
2023-02-02T00:31:03.662Z,79.01
2023-02-02T00:33:55.955Z,79.24
2023-02-02T00:36:48.582Z,79.11
2023-02-02T00:39:40.895Z,79.12
2023-02-02T00:42:33.027Z,79.06
2023-02-02T00:45:26.096Z,79.25
2023-02-02T00:48:18.593Z,79.02
2023-02-02T00:51:10.809Z,79.16
2023-02-02T00:54:03.296Z,79.24
2023-02-02T00:56:55.748Z,79.19
2023-02-02T00:59:48.175Z,79.08
2023-02-02T01:02:40.370Z,79.32
2023-02-02T01:05:32.620Z,79.39
2023-02-02T01:08:24.876Z,79.51
2023-02-02T01:11:16.962Z,79.53
2023-02-02T01:14:09.241Z,79.54
2023-02-02T01:17:01.564Z,79.60
2023-02-02T01:19:54.651Z,79.48
2023-02-02T01:22:47.319Z,79.46
2023-02-02T01:25:39.556Z,79.51
2023-02-02T01:28:32.247Z,79.46
2023-02-02T01:31:24.765Z,79.63
2023-02-02T01:34:16.912Z,79.54
2023-02-02T01:37:04.919Z,79.59
2023-02-02T01:39:57.202Z,79.66
2023-02-02T01:42:49.471Z,79.60
2023-02-02T01:45:41.728Z,79.42
2023-02-02T01:48:36.843Z,79.30
2023-02-02T01:51:34.133Z,79.62
2023-02-02T01:54:31.625Z,79.43
2023-02-02T01:57:29.696Z,79.16
2023-02-02T02:00:25.517Z,79.33
2023-02-02T02:03:20.106Z,79.60
2023-02-02T02:06:15.057Z,79.58
2023-02-02T02:09:09.184Z,79.55
2023-02-02T02:12:01.527Z,79.22
2023-02-02T02:15:11.933Z,79.21
2023-02-02T02:18:13.855Z,79.23
2023-02-02T02:21:43.883Z,79.24
2023-02-02T02:25:31.959Z,79.30
2023-02-02T02:28:49.951Z,79.61
2023-02-02T02:32:03.626Z,79.60
2023-02-02T02:35:03.549Z,79.45
2023-02-02T02:38:00.498Z,79.38
2023-02-02T02:40:56.241Z,79.50
2023-02-02T02:43:52.642Z,79.46
2023-02-02T02:46:45.874Z,79.39
2023-02-02T02:49:44.879Z,79.46
2023-02-02T02:52:38.233Z,79.35
2023-02-02T02:55:40.633Z,79.27
2023-02-02T02:58:44.627Z,79.17
2023-02-02T03:01:50.071Z,79.31
2023-02-02T03:04:47.622Z,79.22
2023-02-02T03:07:43.791Z,79.42
2023-02-02T03:10:39.480Z,79.16
2023-02-02T03:13:32.680Z,79.28
2023-02-02T03:16:24.836Z,79.17
2023-02-02T03:19:16.937Z,79.31
2023-02-02T03:22:08.111Z,79.29
2023-02-02T03:25:00.182Z,79.29
2023-02-02T03:27:52.940Z,79.25
2023-02-02T03:30:47.084Z,79.12
2023-02-02T03:33:38.323Z,79.24
2023-02-02T03:36:30.571Z,79.28
2023-02-02T03:39:22.793Z,78.99
2023-02-02T03:42:15.058Z,79.07
2023-02-02T03:45:08.158Z,79.11
2023-02-02T03:48:00.337Z,79.22
2023-02-02T03:50:52.372Z,79.09
2023-02-02T03:53:47.389Z,79.09
2023-02-02T03:56:39.553Z,78.99
2023-02-02T03:59:31.690Z,78.99
2023-02-02T04:02:23.801Z,79.12
2023-02-02T04:05:15.999Z,79.22
2023-02-02T04:08:08.198Z,79.25
2023-02-02T04:11:00.667Z,79.37
2023-02-02T04:13:52.781Z,79.10
2023-02-02T04:16:45.059Z,79.22
2023-02-02T04:19:37.169Z,79.06
2023-02-02T04:22:29.737Z,79.07
2023-02-02T04:25:22.014Z,79.19
2023-02-02T04:28:14.273Z,79.06
2023-02-02T04:31:06.668Z,79.11
2023-02-02T04:33:59.576Z,79.17
2023-02-02T04:36:51.689Z,79.24
2023-02-02T04:39:43.839Z,79.18
2023-02-02T04:42:35.987Z,79.08
2023-02-02T04:45:28.342Z,79.19
2023-02-02T04:48:20.668Z,79.27
2023-02-02T04:51:15.158Z,79.18
2023-02-02T04:54:08.242Z,79.18
2023-02-02T04:57:02.815Z,78.97
2023-02-02T04:59:54.910Z,78.75
2023-02-02T05:02:47.131Z,78.88
2023-02-02T05:05:39.233Z,78.84
2023-02-02T05:08:31.635Z,78.81
2023-02-02T05:11:24.949Z,78.77
2023-02-02T05:14:18.494Z,78.71
2023-02-02T05:17:10.713Z,78.84
2023-02-02T05:20:02.898Z,78.69
2023-02-02T05:22:54.975Z,78.54
2023-02-02T05:25:52.363Z,78.50
2023-02-02T05:28:44.514Z,78.52
2023-02-02T05:31:22.188Z,78.56
2023-02-02T05:34:14.415Z,78.38
2023-02-02T05:37:06.632Z,78.35
2023-02-02T05:39:58.782Z,78.24
2023-02-02T05:42:51.654Z,78.25
2023-02-02T05:45:44.014Z,77.87
2023-02-02T05:48:36.362Z,77.59
2023-02-02T05:51:32.941Z,77.61
2023-02-02T05:54:25.236Z,77.78
2023-02-02T05:57:08.155Z,77.81
2023-02-02T06:00:00.367Z,77.66
2023-02-02T06:02:52.644Z,77.56
2023-02-02T06:05:44.863Z,77.59
2023-02-02T06:08:37.516Z,77.27
2023-02-02T06:11:29.613Z,77.25
2023-02-02T06:14:21.707Z,77.17
2023-02-02T06:17:13.809Z,77.04
2023-02-02T06:20:06.906Z,77.00
2023-02-02T06:22:59.175Z,76.86
2023-02-02T06:25:51.260Z,76.91
2023-02-02T06:28:43.836Z,76.84
2023-02-02T06:31:36.139Z,76.95
2023-02-02T06:34:28.388Z,76.72
2023-02-02T06:37:20.539Z,76.70
2023-02-02T06:40:14.392Z,76.13
2023-02-02T06:43:06.728Z,76.39
2023-02-02T06:45:40.272Z,76.47
2023-02-02T06:48:32.442Z,76.49
2023-02-02T06:51:25.223Z,76.44
2023-02-02T06:54:17.397Z,76.26
2023-02-02T06:57:10.358Z,76.48
2023-02-02T07:00:02.590Z,76.73
2023-02-02T07:02:54.827Z,76.69
2023-02-02T07:05:47.244Z,76.64
2023-02-02T07:08:39.375Z,77.01
2023-02-02T07:11:32.983Z,77.19
2023-02-02T07:14:27.017Z,77.36
2023-02-02T07:17:19.906Z,77.41
2023-02-02T07:20:13.474Z,77.67
2023-02-02T07:23:06.301Z,77.67
2023-02-02T07:26:06.541Z,77.77
2023-02-02T07:28:58.713Z,77.85
2023-02-02T07:31:51.105Z,77.93
2023-02-02T07:34:44.184Z,78.15
2023-02-02T07:37:19.039Z,78.30
2023-02-02T07:40:13.388Z,78.44
2023-02-02T07:43:05.707Z,78.61
2023-02-02T07:46:02.111Z,78.71
2023-02-02T07:48:56.393Z,79.01
2023-02-02T07:51:49.140Z,79.00
2023-02-02T07:54:33.241Z,78.99
2023-02-02T07:57:25.429Z,79.06
2023-02-02T08:00:18.979Z,78.81
2023-02-02T08:03:13.638Z,78.86
2023-02-02T08:06:12.898Z,79.08
2023-02-02T08:09:09.699Z,79.02
2023-02-02T08:12:02.390Z,79.11
2023-02-02T08:14:54.653Z,79.21
2023-02-02T08:17:50.022Z,79.51
2023-02-02T08:20:42.187Z,79.44
2023-02-02T08:23:34.407Z,79.44
2023-02-02T08:26:28.513Z,79.47
2023-02-02T08:29:19.162Z,79.41
2023-02-02T08:32:11.359Z,79.32
2023-02-02T08:35:03.501Z,79.31
2023-02-02T08:37:55.578Z,79.26
2023-02-02T08:40:47.996Z,79.44
2023-02-02T08:43:40.496Z,79.45
2023-02-02T08:46:33.015Z,79.57
2023-02-02T08:49:25.912Z,79.83
2023-02-02T08:52:18.019Z,79.82
2023-02-02T08:55:10.803Z,79.92
2023-02-02T08:58:03.203Z,79.93
2023-02-02T09:00:55.471Z,80.17
2023-02-02T09:03:47.933Z,80.01
2023-02-02T09:06:41.935Z,80.14
2023-02-02T09:09:34.111Z,80.35
2023-02-02T09:12:26.276Z,80.44
2023-02-02T09:15:18.546Z,80.50
2023-02-02T09:18:10.619Z,80.51
2023-02-02T09:21:04.932Z,80.23
2023-02-02T09:23:57.199Z,80.50
2023-02-02T09:26:49.473Z,80.46
2023-02-02T09:29:41.631Z,80.60
2023-02-02T09:32:34.093Z,80.74
2023-02-02T09:35:26.664Z,80.79
2023-02-02T09:38:19.008Z,80.71
2023-02-02T09:41:41.788Z,81.02
2023-02-02T09:44:49.976Z,80.93
2023-02-02T09:47:58.524Z,81.04
2023-02-02T09:50:54.523Z,80.90
2023-02-02T09:53:55.750Z,81.03
2023-02-02T09:56:54.615Z,80.87
2023-02-02T09:59:49.703Z,81.10
2023-02-02T10:02:46.175Z,81.01
2023-02-02T10:05:50.250Z,80.99
2023-02-02T10:08:49.771Z,81.28
2023-02-02T10:11:50.121Z,81.32
2023-02-02T10:14:48.421Z,81.22
2023-02-02T10:17:46.647Z,81.12
2023-02-02T10:20:45.508Z,81.30
2023-02-02T10:23:40.256Z,81.07
2023-02-02T10:26:39.945Z,81.00
2023-02-02T10:29:48.459Z,81.14
2023-02-02T10:32:27.124Z,80.89
2023-02-02T10:35:37.089Z,80.80
2023-02-02T10:38:39.874Z,80.89
2023-02-02T10:41:42.541Z,80.92
2023-02-02T10:44:44.506Z,80.74
2023-02-02T10:47:38.678Z,80.83
2023-02-02T10:50:29.614Z,80.70
2023-02-02T10:53:25.895Z,80.51
2023-02-02T10:56:22.205Z,80.37
2023-02-02T10:59:20.533Z,80.01
2023-02-02T11:01:52.608Z,79.77
2023-02-02T11:04:52.441Z,79.56
2023-02-02T11:07:44.716Z,79.54
2023-02-02T11:10:36.829Z,79.50
2023-02-02T11:13:32.513Z,79.55
2023-02-02T11:16:38.720Z,79.48
2023-02-02T11:19:36.483Z,79.61
2023-02-02T11:22:35.400Z,79.40
2023-02-02T11:25:32.256Z,79.08
2023-02-02T11:28:30.285Z,79.16
2023-02-02T11:31:39.751Z,78.96
2023-02-02T11:34:32.150Z,78.47
2023-02-02T11:37:16.933Z,78.22
2023-02-02T11:40:28.590Z,78.01
2023-02-02T11:43:29.203Z,78.06
2023-02-02T11:46:24.719Z,77.95
2023-02-02T11:49:19.980Z,77.90
2023-02-02T11:52:21.879Z,77.72
2023-02-02T11:55:23.302Z,77.71
2023-02-02T11:58:28.384Z,77.75
2023-02-02T12:01:28.653Z,77.88
2023-02-02T12:04:27.756Z,77.53
2023-02-02T12:07:24.934Z,77.35
2023-02-02T12:10:27.573Z,77.18
2023-02-02T12:13:30.659Z,77.19
2023-02-02T12:16:42.818Z,77.01
2023-02-02T12:20:05.901Z,76.84
2023-02-02T12:23:01.189Z,76.58
2023-02-02T12:26:06.504Z,76.58
2023-02-02T12:28:49.990Z,76.11
2023-02-02T12:32:06.038Z,75.73
2023-02-02T12:35:21.602Z,75.62
2023-02-02T12:38:23.095Z,75.52
2023-02-02T12:41:31.611Z,75.68
2023-02-02T12:44:15.245Z,75.59
2023-02-02T12:47:19.594Z,75.07
2023-02-02T12:50:31.219Z,74.82
2023-02-02T12:53:25.370Z,74.61
2023-02-02T12:56:28.278Z,74.63
2023-02-02T12:59:48.437Z,74.62
2023-02-02T13:02:48.902Z,74.51
2023-02-02T13:05:56.890Z,74.50
2023-02-02T13:08:54.014Z,74.59
2023-02-02T13:11:42.756Z,74.38
2023-02-02T13:14:41.752Z,74.33
2023-02-02T13:17:40.176Z,74.12
2023-02-02T13:20:41.391Z,74.33
2023-02-02T13:23:38.104Z,73.88
2023-02-02T13:26:35.311Z,73.78
2023-02-02T13:29:34.408Z,73.71
2023-02-02T13:32:42.780Z,73.69
2023-02-02T13:35:45.299Z,73.06
2023-02-02T13:38:42.072Z,72.71
2023-02-02T13:41:34.600Z,72.60
2023-02-02T13:44:33.243Z,72.35
2023-02-02T13:47:33.363Z,72.42
2023-02-02T13:50:12.454Z,72.53
2023-02-02T13:53:27.229Z,72.08
2023-02-02T13:56:29.420Z,71.97
2023-02-02T13:59:36.027Z,71.63
2023-02-02T14:02:34.494Z,71.51
2023-02-02T14:05:29.385Z,70.97
2023-02-02T14:08:23.085Z,70.61
2023-02-02T14:11:22.683Z,70.53
2023-02-02T14:14:35.735Z,70.19
2023-02-02T14:17:53.579Z,70.48
2023-02-02T14:20:50.323Z,70.26
2023-02-02T14:23:56.412Z,70.07
2023-02-02T14:26:50.426Z,69.97
2023-02-02T14:30:01.335Z,69.85
2023-02-02T14:32:53.461Z,69.82
2023-02-02T14:36:04.215Z,69.82
2023-02-02T14:39:19.862Z,69.75
2023-02-02T14:42:36.395Z,69.74
2023-02-02T14:45:33.396Z,69.60
2023-02-02T14:48:26.731Z,69.56
2023-02-02T14:51:22.277Z,69.28
2023-02-02T14:54:26.366Z,69.27
2023-02-02T14:57:28.901Z,69.28
2023-02-02T15:00:27.159Z,69.07
2023-02-02T15:03:49.061Z,69.09
2023-02-02T15:06:43.237Z,68.86
2023-02-02T15:09:41.337Z,68.82
2023-02-02T15:12:39.418Z,68.84
2023-02-02T15:15:37.042Z,68.71
2023-02-02T15:18:34.306Z,68.84
2023-02-02T15:21:27.755Z,68.89
2023-02-02T15:24:25.767Z,69.03
2023-02-02T15:27:21.939Z,69.12
2023-02-02T15:30:17.937Z,69.11
2023-02-02T15:33:28.591Z,69.18
2023-02-02T15:36:24.671Z,69.42
2023-02-02T15:39:31.139Z,69.21
2023-02-02T15:42:49.175Z,69.28
2023-02-02T15:45:46.069Z,68.89
2023-02-02T15:48:38.283Z,68.83
2023-02-02T15:51:31.410Z,68.88
2023-02-02T15:54:29.096Z,68.42
2023-02-02T15:57:38.278Z,68.72
2023-02-02T16:00:33.820Z,68.44
2023-02-02T16:03:31.800Z,68.35
2023-02-02T16:06:24.244Z,68.36
2023-02-02T16:09:25.055Z,68.45
2023-02-02T16:12:19.859Z,68.41
2023-02-02T16:15:22.171Z,68.56
2023-02-02T16:18:16.482Z,68.39
2023-02-02T16:21:25.877Z,68.23
2023-02-02T16:24:01.550Z,68.35
2023-02-02T16:26:55.841Z,68.22
2023-02-02T16:29:48.231Z,67.78
2023-02-02T16:32:42.154Z,67.73
2023-02-02T16:35:36.428Z,67.63
2023-02-02T16:38:27.935Z,67.70
2023-02-02T16:41:32.711Z,67.28
2023-02-02T16:44:40.584Z,66.79
2023-02-02T16:47:39.083Z,66.55
2023-02-02T16:50:34.573Z,65.87
2023-02-02T16:53:29.305Z,65.72
2023-02-02T16:56:27.970Z,65.20
2023-02-02T16:59:24.484Z,65.13
2023-02-02T17:02:25.832Z,65.03
2023-02-02T17:05:25.704Z,65.09
2023-02-02T17:08:29.446Z,64.95
2023-02-02T17:11:26.269Z,64.79
2023-02-02T17:14:31.866Z,64.82
2023-02-02T17:17:24.337Z,64.79
2023-02-02T17:19:59.283Z,64.55
2023-02-02T17:22:56.213Z,64.48
2023-02-02T17:25:49.007Z,64.42
2023-02-02T17:28:42.859Z,64.51
2023-02-02T17:31:25.489Z,64.37
2023-02-02T17:34:19.577Z,64.39
2023-02-02T17:37:13.035Z,64.35
2023-02-02T17:40:05.882Z,64.21
2023-02-02T17:42:58.196Z,64.01
2023-02-02T17:45:50.629Z,64.12
2023-02-02T17:48:43.341Z,64.24
2023-02-02T17:51:49.100Z,64.63
2023-02-02T17:54:41.434Z,64.83
2023-02-02T17:57:33.602Z,64.91
2023-02-02T18:00:31.027Z,65.13
2023-02-02T18:03:25.734Z,65.38
2023-02-02T18:06:18.049Z,65.56
2023-02-02T18:09:11.230Z,65.56
2023-02-02T18:12:03.300Z,65.85
2023-02-02T18:14:55.418Z,65.81
2023-02-02T18:17:47.926Z,66.02
2023-02-02T18:20:41.502Z,66.17
2023-02-02T18:23:33.875Z,66.22
2023-02-02T18:26:27.249Z,66.19
2023-02-02T18:29:19.333Z,66.23
2023-02-02T18:32:11.469Z,66.16
2023-02-02T18:35:03.743Z,66.04
2023-02-02T18:37:55.897Z,66.05
2023-02-02T18:41:02.213Z,66.02
2023-02-02T18:43:56.560Z,65.82
2023-02-02T18:46:49.007Z,65.96
2023-02-02T18:49:41.489Z,65.90
2023-02-02T18:52:36.111Z,65.92
2023-02-02T18:55:29.103Z,65.81
2023-02-02T18:58:21.303Z,65.67
2023-02-02T19:01:16.570Z,65.66
2023-02-02T19:04:08.906Z,65.55
2023-02-02T19:07:18.742Z,65.53
2023-02-02T19:10:13.312Z,65.53
2023-02-02T19:13:15.904Z,65.61
2023-02-02T19:16:18.523Z,65.57
2023-02-02T19:19:22.070Z,65.51
2023-02-02T19:22:11.101Z,65.53
2023-02-02T19:25:14.552Z,65.53
2023-02-02T19:28:22.541Z,65.40
2023-02-02T19:31:16.548Z,65.43
2023-02-02T19:33:58.975Z,65.57
2023-02-02T19:36:52.268Z,65.49
2023-02-02T19:39:47.047Z,65.79
2023-02-02T19:42:42.251Z,66.09
2023-02-02T19:45:28.176Z,65.96
2023-02-02T19:48:23.724Z,66.07
2023-02-02T19:51:39.130Z,66.27
2023-02-02T19:54:34.171Z,66.36
2023-02-02T19:57:34.079Z,66.64
2023-02-02T20:00:29.427Z,66.93
2023-02-02T20:03:24.250Z,66.79
2023-02-02T20:06:23.860Z,67.01
2023-02-02T20:09:19.203Z,67.24
2023-02-02T20:12:23.343Z,67.29
2023-02-02T20:15:29.140Z,67.32
2023-02-02T20:18:16.804Z,67.40
2023-02-02T20:21:19.531Z,67.52
2023-02-02T20:24:18.383Z,67.54
2023-02-02T20:27:09.257Z,67.59
2023-02-02T20:30:18.181Z,67.35
2023-02-02T20:33:22.109Z,67.38
2023-02-02T20:36:28.648Z,67.36
2023-02-02T20:39:29.890Z,67.42
2023-02-02T20:42:22.099Z,67.33
2023-02-02T20:45:14.423Z,67.51
2023-02-02T20:48:07.002Z,67.47
2023-02-02T20:50:59.132Z,67.59
2023-02-02T20:53:55.622Z,67.59
2023-02-02T20:56:47.989Z,67.64
2023-02-02T20:59:40.217Z,67.90
2023-02-02T21:02:32.578Z,67.54
2023-02-02T21:05:25.241Z,67.67
2023-02-02T21:08:17.396Z,67.71
2023-02-02T21:11:09.823Z,67.89
2023-02-02T21:14:02.478Z,67.75
2023-02-02T21:17:08.867Z,67.74
2023-02-02T21:20:06.530Z,68.05
2023-02-02T21:22:49.387Z,68.18
2023-02-02T21:25:41.943Z,68.13
2023-02-02T21:28:34.181Z,68.27
2023-02-02T21:31:26.561Z,68.47
2023-02-02T21:34:20.824Z,68.44
2023-02-02T21:37:14.776Z,68.37
2023-02-02T21:40:13.961Z,68.38
2023-02-02T21:43:16.363Z,68.66
2023-02-02T21:46:18.890Z,68.66
2023-02-02T21:49:25.267Z,68.61
2023-02-02T21:52:19.534Z,68.79
2023-02-02T21:55:33.424Z,68.96
2023-02-02T21:58:29.615Z,68.81
2023-02-02T22:01:27.355Z,68.68
2023-02-02T22:04:25.124Z,68.85
2023-02-02T22:07:17.813Z,69.08
2023-02-02T22:10:26.684Z,69.38
2023-02-02T22:13:21.430Z,69.42
2023-02-02T22:16:18.940Z,69.62
2023-02-02T22:19:25.720Z,69.49
2023-02-02T22:22:19.906Z,69.76
2023-02-02T22:25:28.979Z,69.80
2023-02-02T22:28:23.414Z,69.68
2023-02-02T22:31:15.667Z,69.79
2023-02-02T22:34:07.840Z,69.83
2023-02-02T22:36:59.897Z,69.73
2023-02-02T22:39:52.096Z,69.75
2023-02-02T22:42:24.082Z,69.77
2023-02-02T22:45:16.488Z,69.85
2023-02-02T22:48:08.941Z,69.67
2023-02-02T22:51:01.167Z,69.70
2023-02-02T22:53:53.333Z,69.70
2023-02-02T22:56:45.530Z,69.73
2023-02-02T22:59:37.734Z,69.69
2023-02-02T23:02:29.944Z,69.82
2023-02-02T23:05:23.590Z,69.77
2023-02-02T23:08:15.761Z,69.53
2023-02-02T23:11:07.976Z,69.61
2023-02-02T23:14:00.070Z,69.92
2023-02-02T23:16:52.235Z,69.83
2023-02-02T23:19:24.157Z,70.07
2023-02-02T23:22:16.382Z,69.93
2023-02-02T23:25:09.285Z,69.70
2023-02-02T23:28:01.451Z,69.55
2023-02-02T23:30:54.630Z,69.69
2023-02-02T23:33:46.913Z,69.75
2023-02-02T23:36:39.061Z,69.69
2023-02-02T23:39:31.184Z,69.73
2023-02-02T23:42:23.387Z,69.66
2023-02-02T23:45:16.506Z,69.76
2023-02-02T23:48:10.021Z,69.52
2023-02-02T23:51:02.429Z,69.63
2023-02-02T23:53:55.616Z,69.59
2023-02-02T23:56:47.816Z,69.40
2023-02-02T23:59:40.024Z,69.46
